ソウル/仁川 の空港の天気 - METARとTAF

仁川国際空港 ( RKSI / ICN ) - 大韓民国 仁川広域市 (ソウル特別市近郊)
飛行場実況気象(Metar)
観測時間07/21 07:00 KST (07/20 22:00 UTC)
風向・風速南 5m/s
視程4000m
天気現象もや
少しの雲 雲底高度 300m
全天の8割程度の雲 雲底高度 910m
気温27℃
湿度84%
気圧1007hPa
METARRKSI 202200Z 18009KT 160V220 4000 BR FEW010 BKN030 27/24 Q1007 NOSIG
過去の天気等 Google飛行場航空写真 Wunderground天気予報

過去48時間のMETAR

飛行場予報(TAF)
発表時間: 7/21 02:00 KST (7/20 17:00 UTC)
予報対象時間: 21日3時 KST ~ 22日9時 KST
風向・風速南 3m/s
視程6,000m
なし
21日4時 KST ~ 21日5時 KST に徐々に
視程4,200m
天気現象もや
21日7時 KST ~ 21日8時 KST に徐々に
風向・風速南南西 4m/s
視程6,000m
天気現象運行に影響にある天気現象が終了
全天の4割程度の雲 雲底高度 910m
全天の8割程度の雲 雲底高度 5,490m
22日0時 KST ~ 22日1時 KST に徐々に
風向・風速南 3m/s
視程3,500m
天気現象もや
22日3時 KST ~ 22日8時 KST に一時的に
視程1,400m
少しの雲 雲底高度 150m
全天の8割程度の雲 雲底高度 610m
TAF RKSI 201700Z 2018/2124 18006KT 6000 NSC TN25/2020Z TX30/2105Z TN25/2120Z
BECMG 2019/2020 4200 BR
BECMG 2022/2023 21007KT 6000 NSW SCT030 BKN180
BECMG 2115/2116 18006KT 3500 BR
TEMPO 2118/2123 1400 FEW005 BKN020